createdAt,value
2023-01-20T00:00:27.137Z,-1.19
2023-01-20T00:01:27.098Z,-1.16
2023-01-20T00:02:27.134Z,-1.04
2023-01-20T00:03:27.201Z,-1.07
2023-01-20T00:04:27.066Z,-1.05
2023-01-20T00:05:27.063Z,-1.05
2023-01-20T00:06:27.076Z,-1.09
2023-01-20T00:07:27.019Z,-1.04
2023-01-20T00:08:27.029Z,-1.07
2023-01-20T00:09:27.001Z,-1.12
2023-01-20T00:10:26.985Z,-1.10
2023-01-20T00:11:26.982Z,-1.10
2023-01-20T00:12:27.000Z,-1.05
2023-01-20T00:13:26.978Z,-1.04
2023-01-20T00:14:26.964Z,-1.02
2023-01-20T00:15:26.929Z,-1.04
2023-01-20T00:16:26.952Z,-1.05
2023-01-20T00:17:26.912Z,-1.09
2023-01-20T00:18:26.912Z,-1.15
2023-01-20T00:19:26.886Z,-1.17
2023-01-20T00:20:26.872Z,-1.16
2023-01-20T00:21:26.869Z,-1.19
2023-01-20T00:22:26.872Z,-1.20
2023-01-20T00:23:26.845Z,-1.30
2023-01-20T00:24:26.856Z,-1.33
2023-01-20T00:25:26.823Z,-1.37
2023-01-20T00:26:26.792Z,-1.37
2023-01-20T00:27:26.790Z,-1.40
2023-01-20T00:28:26.791Z,-1.41
2023-01-20T00:29:26.760Z,-1.45
2023-01-20T00:30:26.774Z,-1.31
2023-01-20T00:31:26.811Z,-1.31
2023-01-20T00:32:26.744Z,-1.30
2023-01-20T00:33:26.719Z,-1.35
2023-01-20T00:34:26.697Z,-1.41
2023-01-20T00:35:26.681Z,-1.45
2023-01-20T00:36:26.675Z,-1.48
2023-01-20T00:37:26.647Z,-1.55
2023-01-20T00:38:26.682Z,-1.58
2023-01-20T00:39:26.638Z,-1.61
2023-01-20T00:40:26.628Z,-1.62
2023-01-20T00:41:26.738Z,-1.67
2023-01-20T00:42:26.800Z,-1.67
2023-01-20T00:43:26.688Z,-1.69
2023-01-20T00:44:26.647Z,-1.62
2023-01-20T00:45:26.594Z,-1.58
2023-01-20T00:46:26.590Z,-1.55
2023-01-20T00:47:26.600Z,-1.48
2023-01-20T00:48:26.675Z,-1.51
2023-01-20T00:49:26.536Z,-1.35
2023-01-20T00:50:26.588Z,-1.34
2023-01-20T00:51:26.595Z,-1.34
2023-01-20T00:52:26.796Z,-1.33
2023-01-20T00:53:26.592Z,-1.35
2023-01-20T00:54:26.475Z,-1.38
2023-01-20T00:55:26.447Z,-1.46
2023-01-20T00:56:26.414Z,-1.49
2023-01-20T00:57:26.464Z,-1.56
2023-01-20T00:58:26.426Z,-1.59
2023-01-20T00:59:26.433Z,-1.66
2023-01-20T01:00:26.400Z,-1.69
2023-01-20T01:01:26.413Z,-1.73
2023-01-20T01:02:26.458Z,-1.76
2023-01-20T01:03:26.382Z,-1.80
2023-01-20T01:04:26.383Z,-1.79
2023-01-20T01:05:26.346Z,-1.79
2023-01-20T01:06:26.361Z,-1.77
2023-01-20T01:07:26.298Z,-1.76
2023-01-20T01:08:26.311Z,-1.77
2023-01-20T01:09:26.281Z,-1.82
2023-01-20T01:10:26.240Z,-1.85
2023-01-20T01:11:26.229Z,-1.90
2023-01-20T01:12:26.220Z,-1.94
2023-01-20T01:13:26.220Z,-2.02
2023-01-20T01:14:26.215Z,-1.94
2023-01-20T01:15:26.184Z,-1.94
2023-01-20T01:16:26.228Z,-1.98
2023-01-20T01:17:26.188Z,-2.05
2023-01-20T01:18:26.166Z,-2.09
2023-01-20T01:19:26.156Z,-2.13
2023-01-20T01:20:26.129Z,-2.12
2023-01-20T01:21:26.107Z,-2.15
2023-01-20T01:22:26.146Z,-2.21
2023-01-20T01:23:26.116Z,-2.26
2023-01-20T01:24:26.082Z,-2.24
2023-01-20T01:25:26.117Z,-2.21
2023-01-20T01:26:26.075Z,-2.21
2023-01-20T01:27:26.055Z,-2.26
2023-01-20T01:28:26.054Z,-2.27
2023-01-20T01:29:26.057Z,-2.27
2023-01-20T01:30:26.029Z,-2.27
2023-01-20T01:31:26.103Z,-2.29
2023-01-20T01:32:26.044Z,-2.32
2023-01-20T01:33:25.990Z,-2.27
2023-01-20T01:34:25.954Z,-2.26
2023-01-20T01:35:25.931Z,-2.30
2023-01-20T01:36:25.957Z,-2.30
2023-01-20T01:37:25.911Z,-2.30
2023-01-20T01:38:25.924Z,-2.30
2023-01-20T01:39:25.890Z,-2.35
2023-01-20T01:40:25.881Z,-2.30
2023-01-20T01:41:25.866Z,-2.29
2023-01-20T01:42:25.851Z,-2.24
2023-01-20T01:43:25.849Z,-2.26
2023-01-20T01:44:25.850Z,-2.24
2023-01-20T01:45:25.869Z,-2.20
2023-01-20T01:46:25.811Z,-2.18
2023-01-20T01:47:25.778Z,-2.24
2023-01-20T01:48:25.781Z,-2.26
2023-01-20T01:49:25.780Z,-2.29
2023-01-20T01:50:25.771Z,-2.29
2023-01-20T01:51:25.765Z,-2.35
2023-01-20T01:52:25.748Z,-2.39
2023-01-20T01:53:25.709Z,-2.42
2023-01-20T01:54:25.729Z,-2.46
2023-01-20T01:55:25.685Z,-2.49
2023-01-20T01:56:25.698Z,-2.50
2023-01-20T01:57:25.665Z,-2.56
2023-01-20T01:58:25.654Z,-2.56
2023-01-20T01:59:25.656Z,-2.48
2023-01-20T02:00:25.644Z,-2.48
2023-01-20T02:01:25.808Z,-2.50
2023-01-20T02:02:25.674Z,-2.50
2023-01-20T02:03:25.653Z,-2.53
2023-01-20T02:04:25.623Z,-2.53
2023-01-20T02:05:25.596Z,-2.56
2023-01-20T02:06:25.568Z,-2.60
2023-01-20T02:07:25.574Z,-2.70
2023-01-20T02:08:25.550Z,-2.71
2023-01-20T02:09:25.563Z,-2.77
2023-01-20T02:10:25.521Z,-2.58
2023-01-20T02:11:25.514Z,-2.52
2023-01-20T02:12:25.508Z,-2.48
2023-01-20T02:13:25.476Z,-2.48
2023-01-20T02:14:25.483Z,-2.29
2023-01-20T02:15:25.442Z,-2.18
2023-01-20T02:16:25.541Z,-2.15
2023-01-20T02:17:25.415Z,-2.13
2023-01-20T02:18:25.423Z,-2.10
2023-01-20T02:19:25.429Z,-2.13
2023-01-20T02:20:25.398Z,-2.12
2023-01-20T02:21:25.394Z,-2.05
2023-01-20T02:22:25.350Z,-1.87
2023-01-20T02:23:25.343Z,-1.91
2023-01-20T02:24:25.341Z,-1.91
2023-01-20T02:25:25.318Z,-1.91
2023-01-20T02:26:25.308Z,-1.91
2023-01-20T02:27:25.312Z,-1.95
2023-01-20T02:28:25.280Z,-1.95
2023-01-20T02:29:25.320Z,-2.02
2023-01-20T02:30:25.293Z,-2.12
2023-01-20T02:31:25.333Z,-2.16
2023-01-20T02:32:25.243Z,-2.18
2023-01-20T02:33:25.210Z,-2.15
2023-01-20T02:34:25.225Z,-2.10
2023-01-20T02:35:25.186Z,-2.05
2023-01-20T02:36:25.195Z,-2.02
2023-01-20T02:37:25.166Z,-2.03
2023-01-20T02:38:25.165Z,-2.05
2023-01-20T02:39:27.660Z,-2.09
2023-01-20T02:40:25.133Z,-2.16
2023-01-20T02:41:25.125Z,-2.18
2023-01-20T02:42:25.111Z,-2.20
2023-01-20T02:43:25.092Z,-2.24
2023-01-20T02:44:25.093Z,-2.30
2023-01-20T02:45:25.075Z,-2.26
2023-01-20T02:46:25.062Z,-2.13
2023-01-20T02:47:25.055Z,-2.05
2023-01-20T02:48:25.051Z,-1.95
2023-01-20T02:49:25.032Z,-1.92
2023-01-20T02:50:25.020Z,-1.97
2023-01-20T02:51:25.000Z,-2.03
2023-01-20T02:52:24.991Z,-2.09
2023-01-20T02:53:24.963Z,-2.15
2023-01-20T02:54:24.971Z,-2.18
2023-01-20T02:55:24.941Z,-2.15
2023-01-20T02:56:24.955Z,-2.12
2023-01-20T02:57:24.918Z,-2.15
2023-01-20T02:58:24.911Z,-2.18
2023-01-20T02:59:24.911Z,-2.15
2023-01-20T03:00:24.887Z,-2.09
2023-01-20T03:01:24.970Z,-2.06
2023-01-20T03:02:24.859Z,-2.03
2023-01-20T03:03:24.869Z,-2.05
2023-01-20T03:04:24.848Z,-2.08
2023-01-20T03:05:24.846Z,-2.05
2023-01-20T03:06:24.808Z,-2.00
2023-01-20T03:07:24.814Z,-1.91
2023-01-20T03:08:24.788Z,-1.87
2023-01-20T03:09:24.799Z,-1.85
2023-01-20T03:10:24.762Z,-1.85
2023-01-20T03:11:24.761Z,-1.92
2023-01-20T03:12:24.743Z,-1.94
2023-01-20T03:13:24.736Z,-1.95
2023-01-20T03:14:24.749Z,-1.90
2023-01-20T03:15:24.708Z,-1.70
2023-01-20T03:16:24.747Z,-1.51
2023-01-20T03:17:24.690Z,-1.43
2023-01-20T03:18:24.678Z,-1.40
2023-01-20T03:19:24.677Z,-1.34
2023-01-20T03:20:24.655Z,-1.33
2023-01-20T03:21:24.705Z,-1.25
2023-01-20T03:22:24.637Z,-1.22
2023-01-20T03:23:24.612Z,-1.20
2023-01-20T03:24:24.602Z,-1.17
2023-01-20T03:25:24.581Z,-1.12
2023-01-20T03:26:24.579Z,-1.07
2023-01-20T03:27:24.576Z,-1.09
2023-01-20T03:28:24.669Z,-1.05
2023-01-20T03:29:24.621Z,-1.04
2023-01-20T03:30:24.539Z,-1.02
2023-01-20T03:31:24.719Z,-1.05
2023-01-20T03:32:24.633Z,-1.07
2023-01-20T03:33:24.572Z,-1.09
2023-01-20T03:34:24.499Z,-1.10
2023-01-20T03:35:24.479Z,-1.13
2023-01-20T03:36:24.548Z,-1.12
2023-01-20T03:37:25.467Z,-1.12
2023-01-20T03:38:25.406Z,-1.01
2023-01-20T03:39:25.335Z,-0.91
2023-01-20T03:40:24.819Z,-0.85
2023-01-20T03:41:25.498Z,-0.83
2023-01-20T03:42:24.463Z,-0.91
2023-01-20T03:43:25.585Z,-0.92
2023-01-20T03:44:24.985Z,-0.91
2023-01-20T03:45:26.090Z,-0.92
2023-01-20T03:46:24.495Z,-0.94
2023-01-20T03:47:24.318Z,-0.97
2023-01-20T03:48:24.296Z,-0.99
2023-01-20T03:49:25.513Z,-1.05
2023-01-20T03:50:25.064Z,-1.07
2023-01-20T03:51:24.706Z,-1.15
2023-01-20T03:52:46.893Z,-1.15
2023-01-20T03:53:25.246Z,-1.19
2023-01-20T03:54:24.248Z,-1.19
2023-01-20T03:55:24.232Z,-1.20
2023-01-20T03:56:24.208Z,-1.20
2023-01-20T03:57:24.214Z,-1.17
2023-01-20T03:58:24.229Z,-1.19
2023-01-20T03:59:24.202Z,-1.17
2023-01-20T04:00:24.143Z,-1.13
2023-01-20T04:01:24.232Z,-1.15
2023-01-20T04:02:24.264Z,-1.16
2023-01-20T04:03:24.172Z,-1.16
2023-01-20T04:04:24.122Z,-1.16
2023-01-20T04:05:24.091Z,-1.20
2023-01-20T04:06:24.091Z,-1.19
2023-01-20T04:07:24.089Z,-1.20
2023-01-20T04:08:24.051Z,-1.20
2023-01-20T04:09:24.042Z,-1.20
2023-01-20T04:10:24.041Z,-1.20
2023-01-20T04:11:24.050Z,-1.25
2023-01-20T04:12:24.010Z,-1.13
2023-01-20T04:13:23.999Z,-1.17
2023-01-20T04:14:23.979Z,-1.17
2023-01-20T04:15:23.979Z,-1.22
2023-01-20T04:16:23.942Z,-1.25
2023-01-20T04:17:23.957Z,-1.27
2023-01-20T04:18:23.932Z,-1.27
2023-01-20T04:19:23.941Z,-1.33
2023-01-20T04:20:23.911Z,-1.37
2023-01-20T04:21:23.898Z,-1.43
2023-01-20T04:22:23.865Z,-1.41
2023-01-20T04:23:23.866Z,-1.46
2023-01-20T04:24:23.869Z,-1.48
2023-01-20T04:25:23.855Z,-1.48
2023-01-20T04:26:23.835Z,-1.48
2023-01-20T04:27:23.837Z,-1.54
2023-01-20T04:28:23.817Z,-1.54
2023-01-20T04:29:23.795Z,-1.58
2023-01-20T04:30:23.841Z,-1.61
2023-01-20T04:31:30.442Z,-1.64
2023-01-20T04:32:24.747Z,-1.55
2023-01-20T04:33:23.755Z,-1.51
2023-01-20T04:34:23.749Z,-1.54
2023-01-20T04:35:23.757Z,-1.61
2023-01-20T04:36:23.713Z,-1.62
2023-01-20T04:37:23.696Z,-1.70
2023-01-20T04:38:23.686Z,-1.76
2023-01-20T04:39:23.674Z,-1.82
2023-01-20T04:40:23.672Z,-1.82
2023-01-20T04:41:23.662Z,-1.82
2023-01-20T04:42:23.627Z,-1.85
2023-01-20T04:43:23.625Z,-1.88
2023-01-20T04:44:23.614Z,-1.92
2023-01-20T04:45:23.724Z,-2.00
2023-01-20T04:46:23.646Z,-2.05
2023-01-20T04:47:23.563Z,-2.03
2023-01-20T04:48:23.561Z,-1.94
2023-01-20T04:49:23.571Z,-1.88
2023-01-20T04:50:23.552Z,-1.88
2023-01-20T04:51:23.524Z,-1.91
2023-01-20T04:52:23.501Z,-1.94
2023-01-20T04:53:23.513Z,-1.98
2023-01-20T04:54:23.469Z,-1.95
2023-01-20T04:55:23.482Z,-1.91
2023-01-20T04:56:23.463Z,-1.92
2023-01-20T04:57:23.451Z,-1.97
2023-01-20T04:58:23.429Z,-2.02
2023-01-20T04:59:23.430Z,-2.12
2023-01-20T05:00:23.423Z,-2.15
2023-01-20T05:01:23.560Z,-2.16
2023-01-20T05:02:23.585Z,-2.23
2023-01-20T05:03:23.408Z,-2.24
2023-01-20T05:04:23.361Z,-2.26
2023-01-20T05:05:23.360Z,-2.32
2023-01-20T05:06:23.336Z,-2.37
2023-01-20T05:07:23.323Z,-2.42
2023-01-20T05:08:23.303Z,-2.48
2023-01-20T05:09:23.312Z,-2.43
2023-01-20T05:10:23.289Z,-2.32
2023-01-20T05:11:23.271Z,-2.27
2023-01-20T05:12:23.264Z,-2.23
2023-01-20T05:13:23.284Z,-2.16
2023-01-20T05:14:23.231Z,-2.13
2023-01-20T05:15:23.242Z,-2.16
2023-01-20T05:16:23.210Z,-2.12
2023-01-20T05:17:23.200Z,-2.10
2023-01-20T05:18:23.171Z,-2.06
2023-01-20T05:19:23.168Z,-2.09
2023-01-20T05:20:23.165Z,-2.13
2023-01-20T05:21:23.140Z,-2.13
2023-01-20T05:22:23.122Z,-2.16
2023-01-20T05:23:23.116Z,-2.20
2023-01-20T05:24:23.109Z,-2.24
2023-01-20T05:25:23.110Z,-2.29
2023-01-20T05:26:23.072Z,-2.26
2023-01-20T05:27:23.071Z,-2.27
2023-01-20T05:28:23.059Z,-2.32
2023-01-20T05:29:23.050Z,-2.40
2023-01-20T05:30:23.103Z,-2.48
2023-01-20T05:31:23.114Z,-2.61
2023-01-20T05:32:23.005Z,-2.64
2023-01-20T05:33:23.482Z,-2.64
2023-01-20T05:34:22.979Z,-2.63
2023-01-20T05:35:22.988Z,-2.64
2023-01-20T05:36:22.955Z,-2.64
2023-01-20T05:37:22.952Z,-2.67
2023-01-20T05:38:22.938Z,-2.74
2023-01-20T05:39:22.918Z,-2.77
2023-01-20T05:40:22.937Z,-2.81
2023-01-20T05:41:22.901Z,-2.82
2023-01-20T05:42:22.886Z,-2.85
2023-01-20T05:43:22.874Z,-2.91
2023-01-20T05:44:22.868Z,-2.91
2023-01-20T05:45:22.870Z,-2.89
2023-01-20T05:46:22.911Z,-2.86
2023-01-20T05:47:22.817Z,-2.84
2023-01-20T05:48:22.809Z,-2.81
2023-01-20T05:49:22.832Z,-2.82
2023-01-20T05:50:22.794Z,-2.85
2023-01-20T05:51:22.774Z,-2.81
2023-01-20T05:52:22.795Z,-2.78
2023-01-20T05:53:22.759Z,-2.78
2023-01-20T05:54:22.774Z,-2.86
2023-01-20T05:55:22.749Z,-2.94
2023-01-20T05:56:22.717Z,-3.02
2023-01-20T05:57:22.706Z,-3.07
2023-01-20T05:58:22.682Z,-3.10
2023-01-20T05:59:22.682Z,-3.14
2023-01-20T06:00:22.673Z,-3.14
2023-01-20T06:01:22.818Z,-3.12
2023-01-20T06:02:22.712Z,-3.07
2023-01-20T06:03:22.664Z,-3.06
2023-01-20T06:04:22.648Z,-3.12
2023-01-20T06:05:22.615Z,-3.17
2023-01-20T06:06:22.582Z,-3.23
2023-01-20T06:07:22.611Z,-3.27
2023-01-20T06:08:22.566Z,-3.28
2023-01-20T06:09:22.569Z,-3.27
2023-01-20T06:10:22.551Z,-3.27
2023-01-20T06:11:22.517Z,-3.28
2023-01-20T06:12:22.509Z,-3.33
2023-01-20T06:13:22.503Z,-3.35
2023-01-20T06:14:22.503Z,-3.39
2023-01-20T06:15:22.520Z,-3.45
2023-01-20T06:16:22.518Z,-3.52
2023-01-20T06:17:22.506Z,-3.54
2023-01-20T06:18:22.467Z,-3.56
2023-01-20T06:19:22.460Z,-3.63
2023-01-20T06:20:22.477Z,-3.64
2023-01-20T06:21:22.408Z,-3.69
2023-01-20T06:22:22.394Z,-3.67
2023-01-20T06:23:22.386Z,-3.69
2023-01-20T06:24:22.377Z,-3.67
2023-01-20T06:25:22.375Z,-3.71
2023-01-20T06:26:22.366Z,-3.75
2023-01-20T06:27:22.333Z,-3.81
2023-01-20T06:28:22.313Z,-3.79
2023-01-20T06:29:22.317Z,-3.75
2023-01-20T06:30:22.343Z,-3.75
2023-01-20T06:31:22.521Z,-3.75
2023-01-20T06:32:22.278Z,-3.62
2023-01-20T06:33:22.263Z,-3.54
2023-01-20T06:34:22.249Z,-3.52
2023-01-20T06:35:22.232Z,-3.54
2023-01-20T06:36:22.786Z,-3.63
2023-01-20T06:37:22.210Z,-3.72
2023-01-20T06:38:22.225Z,-3.81
2023-01-20T06:39:22.201Z,-3.85
2023-01-20T06:40:22.171Z,-3.91
2023-01-20T06:41:22.222Z,-3.93
2023-01-20T06:42:22.143Z,-3.97
2023-01-20T06:43:22.139Z,-4.00
2023-01-20T06:44:22.119Z,-4.01
2023-01-20T06:45:22.112Z,-4.11
2023-01-20T06:46:22.196Z,-4.15
2023-01-20T06:47:22.086Z,-4.20
2023-01-20T06:48:22.062Z,-4.25
2023-01-20T06:49:22.088Z,-4.28
2023-01-20T06:50:22.050Z,-4.32
2023-01-20T06:51:22.052Z,-4.39
2023-01-20T06:52:22.018Z,-4.38
2023-01-20T06:53:22.028Z,-4.38
2023-01-20T06:54:21.997Z,-4.35
2023-01-20T06:55:21.979Z,-4.33
2023-01-20T06:56:21.987Z,-4.28
2023-01-20T06:57:21.954Z,-4.29
2023-01-20T06:58:21.945Z,-4.28
2023-01-20T06:59:21.947Z,-4.24
2023-01-20T07:00:21.926Z,-4.20
2023-01-20T07:01:22.172Z,-4.17
2023-01-20T07:02:21.894Z,-4.17
2023-01-20T07:03:21.885Z,-4.18
2023-01-20T07:04:21.876Z,-4.20
2023-01-20T07:05:21.859Z,-4.25
2023-01-20T07:06:21.852Z,-4.30
2023-01-20T07:07:21.824Z,-4.36
2023-01-20T07:08:21.819Z,-4.39
2023-01-20T07:09:21.804Z,-4.40
2023-01-20T07:10:21.787Z,-4.42
2023-01-20T07:11:21.808Z,-4.46
2023-01-20T07:12:21.770Z,-4.49
2023-01-20T07:13:21.761Z,-4.46
2023-01-20T07:14:21.753Z,-4.50
2023-01-20T07:15:21.732Z,-4.53
2023-01-20T07:16:21.780Z,-4.53
2023-01-20T07:17:21.720Z,-4.51
2023-01-20T07:18:21.703Z,-4.43
2023-01-20T07:19:21.685Z,-4.40
2023-01-20T07:20:21.679Z,-4.40
2023-01-20T07:21:22.089Z,-4.35
2023-01-20T07:22:21.660Z,-4.33
2023-01-20T07:23:21.627Z,-4.35
2023-01-20T07:24:21.630Z,-4.35
2023-01-20T07:25:21.597Z,-4.39
2023-01-20T07:26:21.621Z,-4.35
2023-01-20T07:27:21.584Z,-4.33
2023-01-20T07:28:21.569Z,-4.32
2023-01-20T07:29:21.550Z,-4.29
2023-01-20T07:30:21.561Z,-4.30
2023-01-20T07:31:21.672Z,-4.30
2023-01-20T07:32:21.522Z,-4.30
2023-01-20T07:33:21.520Z,-4.32
2023-01-20T07:34:21.495Z,-4.35
2023-01-20T07:35:21.473Z,-4.38
2023-01-20T07:36:21.494Z,-4.36
2023-01-20T07:37:21.463Z,-4.29
2023-01-20T07:38:21.447Z,-4.15
2023-01-20T07:39:21.423Z,-4.11
2023-01-20T07:40:21.422Z,-4.04
2023-01-20T07:41:21.421Z,-4.07
2023-01-20T07:42:21.400Z,-4.10
2023-01-20T07:43:21.372Z,-4.11
2023-01-20T07:44:21.381Z,-4.07
2023-01-20T07:45:21.352Z,-4.06
2023-01-20T07:46:21.391Z,-3.97
2023-01-20T07:47:21.336Z,-3.99
2023-01-20T07:48:21.330Z,-4.00
2023-01-20T07:49:21.295Z,-4.00
2023-01-20T07:50:21.290Z,-3.96
2023-01-20T07:51:21.301Z,-3.94
2023-01-20T07:52:21.266Z,-3.88
2023-01-20T07:53:21.271Z,-3.85
2023-01-20T07:54:21.256Z,-3.81
2023-01-20T07:55:23.047Z,-3.79
2023-01-20T07:56:21.268Z,-3.72
2023-01-20T07:57:21.197Z,-3.66
2023-01-20T07:58:21.197Z,-3.62
2023-01-20T07:59:21.182Z,-3.57
2023-01-20T08:00:21.171Z,-3.52
2023-01-20T08:01:21.316Z,-3.48
2023-01-20T08:02:21.147Z,-3.39
2023-01-20T08:03:21.128Z,-3.36
2023-01-20T08:04:21.125Z,-3.24
2023-01-20T08:05:21.107Z,-3.18
2023-01-20T08:06:21.119Z,-3.10
2023-01-20T08:07:21.075Z,-3.03
2023-01-20T08:08:21.075Z,-2.94
2023-01-20T08:09:21.063Z,-2.89
2023-01-20T08:10:21.041Z,-2.79
2023-01-20T08:11:21.067Z,-2.71
2023-01-20T08:12:21.036Z,-2.61
2023-01-20T08:13:21.025Z,-2.50
2023-01-20T08:14:21.005Z,-2.45
2023-01-20T08:15:20.995Z,-2.39
2023-01-20T08:16:21.024Z,-2.30
2023-01-20T08:17:20.951Z,-2.24
2023-01-20T08:18:20.954Z,-2.18
2023-01-20T08:19:20.924Z,-2.12
2023-01-20T08:20:20.938Z,-2.08
2023-01-20T08:21:20.934Z,-2.05
2023-01-20T08:22:20.909Z,-2.02
2023-01-20T08:23:20.892Z,-2.00
2023-01-20T08:24:20.884Z,-2.00
2023-01-20T08:25:20.864Z,-1.98
2023-01-20T08:26:20.872Z,-1.95
2023-01-20T08:27:20.831Z,-1.98
2023-01-20T08:28:20.830Z,-1.94
2023-01-20T08:29:20.810Z,-2.00
2023-01-20T08:30:20.815Z,-2.02
2023-01-20T08:31:20.899Z,-2.08
2023-01-20T08:32:20.786Z,-2.16
2023-01-20T08:33:20.757Z,-2.24
2023-01-20T08:34:20.760Z,-2.26
2023-01-20T08:35:20.736Z,-2.29
2023-01-20T08:36:20.739Z,-2.35
2023-01-20T08:37:20.729Z,-2.40
2023-01-20T08:38:20.717Z,-2.46
2023-01-20T08:39:20.680Z,-2.50
2023-01-20T08:40:20.688Z,-2.55
2023-01-20T08:41:20.686Z,-2.55
2023-01-20T08:42:20.647Z,-2.56
2023-01-20T08:43:20.636Z,-2.55
2023-01-20T08:44:20.654Z,-2.53
2023-01-20T08:45:20.614Z,-2.56
2023-01-20T08:46:20.678Z,-2.50
2023-01-20T08:47:20.594Z,-2.48
2023-01-20T08:48:20.606Z,-2.42
2023-01-20T08:49:20.579Z,-2.45
2023-01-20T08:50:20.564Z,-2.42
2023-01-20T08:51:20.602Z,-2.35
2023-01-20T08:52:20.543Z,-2.26
2023-01-20T08:53:20.510Z,-2.16
2023-01-20T08:54:20.511Z,-2.06
2023-01-20T08:55:20.492Z,-2.00
2023-01-20T08:56:20.500Z,-1.94
2023-01-20T08:57:20.464Z,-1.87
2023-01-20T08:58:20.461Z,-1.80
2023-01-20T08:59:20.439Z,-1.77
2023-01-20T09:00:20.430Z,-1.74
2023-01-20T09:01:20.556Z,-1.69
2023-01-20T09:02:20.432Z,-1.64
2023-01-20T09:03:20.390Z,-1.59
2023-01-20T09:04:20.381Z,-1.56
2023-01-20T09:05:20.359Z,-1.55
2023-01-20T09:06:20.396Z,-1.51
2023-01-20T09:07:20.350Z,-1.49
2023-01-20T09:08:20.326Z,-1.48
2023-01-20T09:09:20.311Z,-1.48
2023-01-20T09:10:20.305Z,-1.46
2023-01-20T09:11:20.323Z,-1.49
2023-01-20T09:12:20.293Z,-1.49
2023-01-20T09:13:20.268Z,-1.52
2023-01-20T09:14:20.279Z,-1.54
2023-01-20T09:15:20.240Z,-1.55
2023-01-20T09:16:20.344Z,-1.56
2023-01-20T09:17:20.227Z,-1.55
2023-01-20T09:18:20.209Z,-1.48
2023-01-20T09:19:20.186Z,-1.45
2023-01-20T09:20:20.189Z,-1.38
2023-01-20T09:21:20.164Z,-1.34
2023-01-20T09:22:20.166Z,-1.27
2023-01-20T09:23:20.160Z,-1.23
2023-01-20T09:24:20.135Z,-1.20
2023-01-20T09:25:20.126Z,-1.17
2023-01-20T09:26:34.840Z,-1.16
2023-01-20T09:27:21.120Z,-1.15
2023-01-20T09:28:20.094Z,-1.10
2023-01-20T09:29:20.090Z,-1.07
2023-01-20T09:30:20.064Z,-1.01
2023-01-20T09:31:20.161Z,-0.98
2023-01-20T09:32:20.092Z,-0.95
2023-01-20T09:33:20.043Z,-0.92
2023-01-20T09:34:20.059Z,-0.86
2023-01-20T09:35:19.982Z,-0.80
2023-01-20T09:36:19.985Z,-0.70
2023-01-20T09:37:19.988Z,-0.61
2023-01-20T09:38:19.960Z,-0.49
2023-01-20T09:39:19.961Z,-0.37
2023-01-20T09:40:19.939Z,-0.28
2023-01-20T09:41:19.920Z,-0.21
2023-01-20T09:42:19.926Z,-0.10
2023-01-20T09:43:19.912Z,-0.01
2023-01-20T09:44:19.894Z,0.10
2023-01-20T09:45:19.890Z,0.17
2023-01-20T09:46:20.006Z,0.20
2023-01-20T09:47:19.854Z,0.26
2023-01-20T09:48:19.831Z,0.31
2023-01-20T09:49:19.819Z,0.29
2023-01-20T09:50:19.811Z,0.33
2023-01-20T09:51:19.789Z,0.42
2023-01-20T09:52:19.803Z,0.50
2023-01-20T09:53:19.777Z,0.60
2023-01-20T09:54:19.761Z,0.66
2023-01-20T09:55:19.750Z,0.70
2023-01-20T09:56:19.727Z,0.79
2023-01-20T09:57:19.736Z,0.90
2023-01-20T09:58:19.705Z,1.00
2023-01-20T09:59:19.687Z,1.09
2023-01-20T10:00:19.716Z,1.18
2023-01-20T10:01:19.690Z,1.29
2023-01-20T10:02:19.667Z,1.37
2023-01-20T10:03:19.666Z,1.45
2023-01-20T10:04:19.631Z,1.51
2023-01-20T10:05:19.646Z,1.51
2023-01-20T10:06:19.606Z,1.59
2023-01-20T10:07:19.593Z,1.68
2023-01-20T10:08:19.574Z,1.76
2023-01-20T10:09:19.562Z,1.87
2023-01-20T10:10:19.549Z,1.90
2023-01-20T10:11:19.544Z,1.90
2023-01-20T10:12:19.567Z,1.90
2023-01-20T10:13:19.533Z,1.98
2023-01-20T10:14:19.494Z,2.07
2023-01-20T10:15:19.479Z,2.17
2023-01-20T10:16:19.492Z,2.25
2023-01-20T10:17:19.467Z,2.34
2023-01-20T10:18:19.447Z,2.35
2023-01-20T10:19:19.437Z,2.38
2023-01-20T10:20:19.555Z,2.43
2023-01-20T10:21:19.411Z,2.52
2023-01-20T10:22:19.412Z,2.56
2023-01-20T10:23:19.379Z,2.52
2023-01-20T10:24:19.375Z,2.60
2023-01-20T10:25:19.340Z,2.66
2023-01-20T10:26:19.329Z,2.78
2023-01-20T10:27:19.331Z,2.87
2023-01-20T10:28:19.308Z,2.96
2023-01-20T10:29:19.313Z,2.90
2023-01-20T10:30:19.368Z,2.93
2023-01-20T10:31:19.323Z,2.95
2023-01-20T10:32:19.287Z,2.99
2023-01-20T10:33:19.258Z,3.02
2023-01-20T10:34:19.247Z,3.05
2023-01-20T10:35:19.251Z,3.05
2023-01-20T10:36:19.236Z,3.03
2023-01-20T10:37:19.219Z,2.97
2023-01-20T10:38:19.195Z,3.03
2023-01-20T10:39:19.159Z,3.05
2023-01-20T10:40:19.250Z,3.06
2023-01-20T10:41:19.803Z,3.13
2023-01-20T10:42:19.172Z,3.24
2023-01-20T10:43:19.126Z,3.33
2023-01-20T10:44:19.105Z,3.39
2023-01-20T10:45:19.097Z,3.42
2023-01-20T10:46:19.125Z,3.52
2023-01-20T10:47:19.080Z,3.52
2023-01-20T10:48:19.220Z,3.58
2023-01-20T10:49:19.047Z,3.62
2023-01-20T10:50:19.065Z,3.69
2023-01-20T10:51:19.024Z,3.69
2023-01-20T10:52:19.020Z,3.76
2023-01-20T10:53:18.998Z,3.75
2023-01-20T10:54:18.997Z,3.79
2023-01-20T10:55:18.982Z,3.84
2023-01-20T10:56:18.964Z,3.91
2023-01-20T10:57:18.952Z,3.91
2023-01-20T10:58:18.939Z,3.96
2023-01-20T10:59:18.911Z,4.05
2023-01-20T11:00:18.941Z,4.11
2023-01-20T11:01:18.940Z,4.12
2023-01-20T11:02:18.941Z,4.20
2023-01-20T11:03:18.958Z,4.18
2023-01-20T11:04:18.859Z,4.27
2023-01-20T11:05:18.851Z,4.37
2023-01-20T11:06:18.826Z,4.44
2023-01-20T11:07:18.853Z,4.47
2023-01-20T11:08:18.803Z,4.58
2023-01-20T11:09:18.790Z,4.45
2023-01-20T11:10:18.843Z,4.59
2023-01-20T11:11:18.762Z,4.58
2023-01-20T11:12:18.768Z,4.47
2023-01-20T11:13:18.744Z,4.45
2023-01-20T11:14:18.729Z,4.45
2023-01-20T11:15:18.702Z,4.45
2023-01-20T11:16:18.738Z,4.42
2023-01-20T11:17:18.723Z,4.45
2023-01-20T11:18:18.763Z,4.50
2023-01-20T11:19:18.670Z,4.59
2023-01-20T11:20:18.662Z,4.63
2023-01-20T11:21:18.628Z,4.63
2023-01-20T11:22:18.632Z,4.60
2023-01-20T11:23:18.602Z,4.54
2023-01-20T11:24:18.604Z,4.32
2023-01-20T11:25:18.572Z,4.02
2023-01-20T11:26:18.561Z,3.90
2023-01-20T11:27:18.573Z,3.73
2023-01-20T11:28:18.565Z,3.61
2023-01-20T11:29:18.531Z,3.58
2023-01-20T11:30:18.565Z,3.51
2023-01-20T11:31:18.631Z,3.48
2023-01-20T11:32:18.514Z,3.47
2023-01-20T11:33:26.066Z,3.40
2023-01-20T11:35:43.853Z,3.36
2023-01-20T11:36:52.397Z,3.39
2023-01-20T11:37:43.838Z,3.36
2023-01-20T11:38:51.387Z,3.45
2023-01-20T11:39:43.773Z,3.48
2023-01-20T11:40:51.273Z,3.50
2023-01-20T11:41:51.293Z,3.51
2023-01-20T11:42:43.792Z,3.51
2023-01-20T11:43:43.757Z,3.55
2023-01-20T11:44:43.712Z,3.55
2023-01-20T11:45:43.692Z,3.60
2023-01-20T11:46:43.758Z,3.58
2023-01-20T11:47:43.714Z,3.62
2023-01-20T11:48:43.718Z,3.66
2023-01-20T11:49:43.652Z,3.58
2023-01-20T11:50:43.649Z,3.62
2023-01-20T11:51:43.670Z,3.62
2023-01-20T11:52:43.660Z,3.61
2023-01-20T11:53:43.632Z,3.72
2023-01-20T11:54:43.579Z,3.79
2023-01-20T11:55:43.577Z,3.80
2023-01-20T11:56:43.562Z,3.86
2023-01-20T11:57:43.555Z,3.90
2023-01-20T11:58:43.538Z,3.88
2023-01-20T11:59:43.547Z,3.83
2023-01-20T12:00:43.525Z,3.84
2023-01-20T12:01:43.518Z,3.83
2023-01-20T12:02:43.533Z,3.84
2023-01-20T12:03:43.466Z,3.87
2023-01-20T12:04:43.457Z,3.87
2023-01-20T12:05:43.463Z,3.88
2023-01-20T12:06:43.424Z,3.93
2023-01-20T12:07:43.445Z,3.98
2023-01-20T12:08:43.437Z,4.11
2023-01-20T12:09:43.417Z,3.96
2023-01-20T12:10:43.395Z,3.93
2023-01-20T12:11:43.365Z,3.80
2023-01-20T12:12:43.367Z,3.78
2023-01-20T12:13:43.349Z,3.76
2023-01-20T12:14:43.342Z,3.79
2023-01-20T12:15:43.333Z,3.69
2023-01-20T12:16:43.347Z,3.69
2023-01-20T12:17:43.313Z,3.48
2023-01-20T12:18:56.958Z,3.50
2023-01-20T12:19:44.245Z,3.45
2023-01-20T12:20:54.586Z,3.40
2023-01-20T12:21:44.234Z,3.32
2023-01-20T12:22:43.234Z,3.32
2023-01-20T12:23:43.192Z,3.39
2023-01-20T12:24:43.327Z,3.36
2023-01-20T12:25:43.187Z,3.42
2023-01-20T12:26:43.188Z,3.54
2023-01-20T12:27:43.159Z,3.75
2023-01-20T12:28:43.141Z,3.97
2023-01-20T12:29:43.124Z,4.04
2023-01-20T12:30:43.205Z,4.06
2023-01-20T12:31:43.099Z,4.23
2023-01-20T12:32:43.106Z,4.24
2023-01-20T12:33:43.077Z,4.26
2023-01-20T12:34:43.051Z,4.36
2023-01-20T12:35:43.071Z,4.36
2023-01-20T12:36:43.030Z,4.30
2023-01-20T12:37:43.018Z,4.42
2023-01-20T12:38:43.010Z,4.30
2023-01-20T12:39:42.986Z,4.36
2023-01-20T12:40:42.972Z,4.50
2023-01-20T12:41:42.989Z,4.50
2023-01-20T12:42:42.981Z,4.62
2023-01-20T12:43:42.940Z,4.60
2023-01-20T12:44:42.922Z,4.51
2023-01-20T12:45:42.960Z,4.47
2023-01-20T12:46:42.902Z,4.58
2023-01-20T12:47:42.892Z,4.70
2023-01-20T12:48:46.083Z,4.77
2023-01-20T12:49:42.857Z,4.70
2023-01-20T12:50:42.864Z,4.30
2023-01-20T12:51:42.843Z,4.26
2023-01-20T12:52:42.933Z,4.18
2023-01-20T12:53:42.834Z,4.16
2023-01-20T12:54:48.854Z,4.20
2023-01-20T12:55:43.805Z,4.23
2023-01-20T12:56:42.779Z,3.97
2023-01-20T12:57:42.804Z,3.90
2023-01-20T12:58:42.772Z,3.94
2023-01-20T12:59:42.750Z,4.00
2023-01-20T13:00:42.736Z,4.00